sensor_id;sensor_type;location;lat;lon;timestamp;pressure;altitude;pressure_sealevel;temperature;humidity
78615;BME280;67937;52.488;20.952;2024-01-27T12:37:43;101169.22;;;3.34;88.76
78615;BME280;67937;52.488;20.952;2024-01-27T12:40:17;101173.27;;;3.33;88.50
78615;BME280;67937;52.488;20.952;2024-01-27T12:42:45;101174.81;;;3.53;86.95
78615;BME280;67937;52.488;20.952;2024-01-27T12:45:13;101178.34;;;3.42;86.72
78615;BME280;67937;52.488;20.952;2024-01-27T12:47:41;101184.23;;;3.38;87.22
78615;BME280;67937;52.488;20.952;2024-01-27T12:50:10;101192.71;;;3.41;87.15
78615;BME280;67937;52.488;20.952;2024-01-27T12:52:38;101196.95;;;3.39;87.12
78615;BME280;67937;52.488;20.952;2024-01-27T12:55:06;101197.34;;;3.38;87.43
78615;BME280;67937;52.488;20.952;2024-01-27T12:57:34;101201.19;;;3.42;87.02
78615;BME280;67937;52.488;20.952;2024-01-27T13:00:03;101205.02;;;3.43;87.07
78615;BME280;67937;52.488;20.952;2024-01-27T13:02:36;101207.40;;;3.44;86.85
78615;BME280;67937;52.488;20.952;2024-01-27T13:05:05;101213.05;;;3.47;86.99
78615;BME280;67937;52.488;20.952;2024-01-27T13:07:33;101213.80;;;3.50;86.94
78615;BME280;67937;52.488;20.952;2024-01-27T13:10:02;101218.11;;;3.57;86.51
78615;BME280;67937;52.488;20.952;2024-01-27T13:12:30;101229.02;;;3.59;86.28
78615;BME280;67937;52.488;20.952;2024-01-27T13:14:59;101233.00;;;3.60;86.21
78615;BME280;67937;52.488;20.952;2024-01-27T13:17:27;101237.26;;;3.63;86.38
78615;BME280;67937;52.488;20.952;2024-01-27T13:19:55;101245.27;;;3.67;86.23
78615;BME280;67937;52.488;20.952;2024-01-27T13:22:23;101254.31;;;3.69;86.10
78615;BME280;67937;52.488;20.952;2024-01-27T13:24:52;101253.79;;;3.69;86.33
78615;BME280;67937;52.488;20.952;2024-01-27T13:27:21;101258.52;;;3.73;86.43
78615;BME280;67937;52.488;20.952;2024-01-27T13:29:49;101263.20;;;3.79;86.00
78615;BME280;67937;52.488;20.952;2024-01-27T13:32:17;101268.95;;;3.79;85.70
78615;BME280;67937;52.488;20.952;2024-01-27T13:34:45;101273.45;;;3.75;85.33
78615;BME280;67937;52.488;20.952;2024-01-27T13:37:14;101276.02;;;3.72;85.38
78615;BME280;67937;52.488;20.952;2024-01-27T13:39:42;101282.41;;;3.69;85.08
78615;BME280;67937;52.488;20.952;2024-01-27T13:42:11;101286.78;;;3.64;85.33
78615;BME280;67937;52.488;20.952;2024-01-27T13:44:39;101291.02;;;3.62;84.99
78615;BME280;67937;52.488;20.952;2024-01-27T13:47:07;101296.16;;;3.56;85.34
78615;BME280;67937;52.488;20.952;2024-01-27T13:49:36;101303.09;;;3.52;85.28
78615;BME280;67937;52.488;20.952;2024-01-27T13:52:05;101308.94;;;3.49;85.39
78615;BME280;67937;52.488;20.952;2024-01-27T13:54:33;101315.81;;;3.43;85.31
78615;BME280;67937;52.488;20.952;2024-01-27T13:57:02;101321.76;;;3.42;85.38
78615;BME280;67937;52.488;20.952;2024-01-27T13:59:31;101327.16;;;3.42;85.20
78615;BME280;67937;52.488;20.952;2024-01-27T14:02:00;101334.86;;;3.36;85.14
78615;BME280;67937;52.488;20.952;2024-01-27T14:04:29;101338.23;;;3.35;85.20
78615;BME280;67937;52.488;20.952;2024-01-27T14:06:57;101341.27;;;3.32;85.26
78615;BME280;67937;52.488;20.952;2024-01-27T14:09:29;101346.39;;;3.35;84.29
78615;BME280;67937;52.488;20.952;2024-01-27T14:11:57;101350.14;;;3.28;84.71
78615;BME280;67937;52.488;20.952;2024-01-27T14:14:25;101356.70;;;3.25;84.91
78615;BME280;67937;52.488;20.952;2024-01-27T14:16:53;101362.45;;;3.25;85.01
78615;BME280;67937;52.488;20.952;2024-01-27T14:19:22;101366.92;;;3.27;84.63
78615;BME280;67937;52.488;20.952;2024-01-27T14:21:50;101368.77;;;3.23;84.31
78615;BME280;67937;52.488;20.952;2024-01-27T14:24:18;101376.04;;;3.20;84.41
78615;BME280;67937;52.488;20.952;2024-01-27T14:26:46;101384.48;;;3.18;84.32
78615;BME280;67937;52.488;20.952;2024-01-27T14:29:15;101389.21;;;3.17;84.25
78615;BME280;67937;52.488;20.952;2024-01-27T14:31:44;101388.96;;;3.14;84.26
78615;BME280;67937;52.488;20.952;2024-01-27T14:34:12;101398.39;;;3.14;84.39
78615;BME280;67937;52.488;20.952;2024-01-27T14:36:41;101405.05;;;3.13;84.42
78615;BME280;67937;52.488;20.952;2024-01-27T14:39:10;101411.89;;;3.17;83.84
78615;BME280;67937;52.488;20.952;2024-01-27T14:41:38;101413.94;;;3.13;83.71
78615;BME280;67937;52.488;20.952;2024-01-27T14:44:06;101422.36;;;3.06;84.03
78615;BME280;67937;52.488;20.952;2024-01-27T14:46:34;101428.42;;;3.07;83.89
78615;BME280;67937;52.488;20.952;2024-01-27T14:49:07;101430.57;;;3.00;84.13
78615;BME280;67937;52.488;20.952;2024-01-27T14:51:35;101439.77;;;2.95;84.31
78615;BME280;67937;52.488;20.952;2024-01-27T14:54:03;101447.01;;;2.92;84.49
78615;BME280;67937;52.488;20.952;2024-01-27T14:56:32;101452.94;;;2.87;84.85
78615;BME280;67937;52.488;20.952;2024-01-27T14:59:00;101456.02;;;2.82;85.11
78615;BME280;67937;52.488;20.952;2024-01-27T15:01:28;101462.08;;;2.78;85.39
78615;BME280;67937;52.488;20.952;2024-01-27T15:03:56;101469.55;;;2.73;85.62
78615;BME280;67937;52.488;20.952;2024-01-27T15:06:24;101474.27;;;2.73;85.91
78615;BME280;67937;52.488;20.952;2024-01-27T15:08:53;101476.80;;;2.69;86.10
78615;BME280;67937;52.488;20.952;2024-01-27T15:11:21;101484.55;;;2.60;86.36
78615;BME280;67937;52.488;20.952;2024-01-27T15:13:49;101487.88;;;2.53;86.77
78615;BME280;67937;52.488;20.952;2024-01-27T15:16:17;101498.56;;;2.51;86.82
78615;BME280;67937;52.488;20.952;2024-01-27T15:18:46;101500.41;;;2.47;87.17
78615;BME280;67937;52.488;20.952;2024-01-27T15:21:16;101505.02;;;2.44;87.44
78615;BME280;67937;52.488;20.952;2024-01-27T15:23:44;101511.06;;;2.40;87.61
78615;BME280;67937;52.488;20.952;2024-01-27T15:26:12;101521.38;;;2.32;87.80
78615;BME280;67937;52.488;20.952;2024-01-27T15:28:40;101527.55;;;2.35;87.93
78615;BME280;67937;52.488;20.952;2024-01-27T15:31:09;101533.15;;;2.28;88.09
78615;BME280;67937;52.488;20.952;2024-01-27T15:33:37;101541.02;;;2.34;88.18
78615;BME280;67937;52.488;20.952;2024-01-27T15:36:05;101543.06;;;2.29;88.55
78615;BME280;67937;52.488;20.952;2024-01-27T15:38:33;101548.48;;;2.22;88.63
78615;BME280;67937;52.488;20.952;2024-01-27T15:41:01;101550.40;;;2.27;88.74
78615;BME280;67937;52.488;20.952;2024-01-27T15:43:34;101553.59;;;2.19;89.02
78615;BME280;67937;52.488;20.952;2024-01-27T15:46:03;101564.80;;;2.16;89.38
78615;BME280;67937;52.488;20.952;2024-01-27T15:48:33;101567.36;;;2.11;89.57
78615;BME280;67937;52.488;20.952;2024-01-27T15:51:01;101574.14;;;2.12;89.83
78615;BME280;67937;52.488;20.952;2024-01-27T15:53:29;101580.05;;;2.06;90.09
78615;BME280;67937;52.488;20.952;2024-01-27T15:55:57;101587.64;;;2.01;90.23
78615;BME280;67937;52.488;20.952;2024-01-27T15:58:25;101593.91;;;2.01;90.27
78615;BME280;67937;52.488;20.952;2024-01-27T16:00:53;101593.23;;;1.93;90.49
78615;BME280;67937;52.488;20.952;2024-01-27T16:03:22;101598.29;;;1.93;90.54
78615;BME280;67937;52.488;20.952;2024-01-27T16:06:20;101605.66;;;1.97;90.54
78615;BME280;67937;52.488;20.952;2024-01-27T16:08:49;101605.84;;;1.90;90.75
78615;BME280;67937;52.488;20.952;2024-01-27T16:11:18;101608.31;;;1.88;90.94
78615;BME280;67937;52.488;20.952;2024-01-27T16:14:01;101605.80;;;1.84;91.17
78615;BME280;67937;52.488;20.952;2024-01-27T16:16:40;101613.34;;;1.82;91.28
78615;BME280;67937;52.488;20.952;2024-01-27T16:19:08;101613.02;;;1.81;91.40
78615;BME280;67937;52.488;20.952;2024-01-27T16:21:54;101620.23;;;1.77;91.68
78615;BME280;67937;52.488;20.952;2024-01-27T16:24:26;101624.42;;;1.77;91.72
78615;BME280;67937;52.488;20.952;2024-01-27T16:27:26;101616.92;;;1.77;91.81
78615;BME280;67937;52.488;20.952;2024-01-27T16:30:23;101629.02;;;1.73;92.24
78615;BME280;67937;52.488;20.952;2024-01-27T16:33:18;101633.77;;;1.70;92.32
78615;BME280;67937;52.488;20.952;2024-01-27T16:36:19;101639.71;;;1.70;92.59
78615;BME280;67937;52.488;20.952;2024-01-27T16:39:37;101646.98;;;1.71;92.50
78615;BME280;67937;52.488;20.952;2024-01-27T16:42:38;101649.15;;;1.68;92.78
78615;BME280;67937;52.488;20.952;2024-01-27T16:45:58;101658.54;;;1.68;92.89
78615;BME280;67937;52.488;20.952;2024-01-27T16:56:13;101675.39;;;1.70;93.17
78615;BME280;67937;52.488;20.952;2024-01-27T16:59:12;101677.08;;;1.71;93.10
78615;BME280;67937;52.488;20.952;2024-01-27T17:02:47;101682.58;;;1.75;93.31
78615;BME280;67937;52.488;20.952;2024-01-27T17:06:08;101687.45;;;1.83;93.43
78615;BME280;67937;52.488;20.952;2024-01-27T17:12:41;101700.63;;;1.77;93.68
78615;BME280;67937;52.488;20.952;2024-01-27T17:15:54;101702.61;;;1.82;93.61
78615;BME280;67937;52.488;20.952;2024-01-27T17:19:16;101708.45;;;1.77;93.74
78615;BME280;67937;52.488;20.952;2024-01-27T17:22:18;101713.87;;;1.84;93.52
78615;BME280;67937;52.488;20.952;2024-01-27T17:25:20;101716.05;;;1.80;93.61
78615;BME280;67937;52.488;20.952;2024-01-27T17:28:25;101722.55;;;1.85;93.58
78615;BME280;67937;52.488;20.952;2024-01-27T17:31:40;101726.02;;;1.86;93.59
78615;BME280;67937;52.488;20.952;2024-01-27T17:34:08;101728.67;;;1.92;93.56
78615;BME280;67937;52.488;20.952;2024-01-27T17:36:37;101729.63;;;1.87;93.54
78615;BME280;67937;52.488;20.952;2024-01-27T17:39:05;101733.48;;;1.87;93.54
78615;BME280;67937;52.488;20.952;2024-01-27T17:41:34;101735.04;;;1.87;93.58
78615;BME280;67937;52.488;20.952;2024-01-27T17:44:02;101738.29;;;1.89;93.53
78615;BME280;67937;52.488;20.952;2024-01-27T17:46:30;101741.19;;;1.92;93.54
78615;BME280;67937;52.488;20.952;2024-01-27T17:48:59;101744.88;;;1.91;93.38
78615;BME280;67937;52.488;20.952;2024-01-27T17:51:27;101751.30;;;1.99;93.25
78615;BME280;67937;52.488;20.952;2024-01-27T17:53:55;101748.10;;;1.94;93.19
78615;BME280;67937;52.488;20.952;2024-01-27T17:56:23;101755.72;;;1.97;93.23
78615;BME280;67937;52.488;20.952;2024-01-27T17:58:51;101761.55;;;2.01;93.12
78615;BME280;67937;52.488;20.952;2024-01-27T18:01:19;101764.98;;;1.94;93.09
78615;BME280;67937;52.488;20.952;2024-01-27T18:03:48;101761.63;;;1.97;93.21
78615;BME280;67937;52.488;20.952;2024-01-27T18:06:16;101769.98;;;1.97;93.19
78615;BME280;67937;52.488;20.952;2024-01-27T18:08:44;101775.20;;;1.98;93.26
78615;BME280;67937;52.488;20.952;2024-01-27T18:11:12;101781.59;;;2.00;92.90
78615;BME280;67937;52.488;20.952;2024-01-27T18:13:40;101784.56;;;2.07;92.92
78615;BME280;67937;52.488;20.952;2024-01-27T18:16:13;101784.44;;;2.05;92.81
78615;BME280;67937;52.488;20.952;2024-01-27T18:18:41;101788.48;;;2.11;92.45
78615;BME280;67937;52.488;20.952;2024-01-27T18:21:09;101789.01;;;2.10;92.17
78615;BME280;67937;52.488;20.952;2024-01-27T18:23:37;101799.58;;;2.05;92.33
78615;BME280;67937;52.488;20.952;2024-01-27T18:26:06;101797.27;;;2.07;92.28
78615;BME280;67937;52.488;20.952;2024-01-27T18:28:34;101805.14;;;2.13;91.74
78615;BME280;67937;52.488;20.952;2024-01-27T18:31:02;101806.16;;;2.06;91.94
78615;BME280;67937;52.488;20.952;2024-01-27T18:33:30;101808.05;;;2.07;92.01
78615;BME280;67937;52.488;20.952;2024-01-27T18:35:58;101814.52;;;2.06;91.92
78615;BME280;67937;52.488;20.952;2024-01-27T18:38:26;101814.85;;;2.07;91.94
78615;BME280;67937;52.488;20.952;2024-01-27T18:40:55;101817.94;;;2.09;91.78
78615;BME280;67937;52.488;20.952;2024-01-27T18:43:23;101827.36;;;2.08;91.39
78615;BME280;67937;52.488;20.952;2024-01-27T18:45:51;101830.36;;;2.06;91.52
78615;BME280;67937;52.488;20.952;2024-01-27T18:48:20;101833.11;;;2.08;91.63
78615;BME280;67937;52.488;20.952;2024-01-27T18:50:49;101832.92;;;2.09;91.38
78615;BME280;67937;52.488;20.952;2024-01-27T18:53:17;101832.15;;;2.04;91.70
78615;BME280;67937;52.488;20.952;2024-01-27T18:55:45;101836.13;;;2.05;91.70
78615;BME280;67937;52.488;20.952;2024-01-27T18:58:13;101838.95;;;2.04;91.56
78615;BME280;67937;52.488;20.952;2024-01-27T19:00:41;101849.86;;;2.06;91.47
78615;BME280;67937;52.488;20.952;2024-01-27T19:03:10;101858.03;;;2.07;91.26
78615;BME280;67937;52.488;20.952;2024-01-27T19:05:49;101860.64;;;2.07;91.09
78615;BME280;67937;52.488;20.952;2024-01-27T19:08:36;101861.57;;;2.04;91.14
78615;BME280;67937;52.488;20.952;2024-01-27T19:11:05;101868.50;;;2.06;91.16
78615;BME280;67937;52.488;20.952;2024-01-27T19:13:33;101867.98;;;2.05;90.82
78615;BME280;67937;52.488;20.952;2024-01-27T19:16:01;101873.55;;;2.06;90.65
78615;BME280;67937;52.488;20.952;2024-01-27T19:18:30;101877.72;;;2.06;90.67
78615;BME280;67937;52.488;20.952;2024-01-27T19:20:59;101875.36;;;2.10;90.00
78615;BME280;67937;52.488;20.952;2024-01-27T19:23:28;101878.15;;;2.10;89.84
78615;BME280;67937;52.488;20.952;2024-01-27T19:25:56;101880.43;;;2.10;89.44
78615;BME280;67937;52.488;20.952;2024-01-27T19:28:25;101879.95;;;2.08;89.57
78615;BME280;67937;52.488;20.952;2024-01-27T19:30:55;101883.95;;;2.08;89.60
78615;BME280;67937;52.488;20.952;2024-01-27T19:33:23;101890.02;;;2.10;89.43
78615;BME280;67937;52.488;20.952;2024-01-27T19:35:52;101892.80;;;2.09;89.55
78615;BME280;67937;52.488;20.952;2024-01-27T19:38:20;101897.46;;;2.11;89.22
78615;BME280;67937;52.488;20.952;2024-01-27T19:40:49;101903.05;;;2.11;89.45
78615;BME280;67937;52.488;20.952;2024-01-27T19:43:17;101905.62;;;2.13;89.26
78615;BME280;67937;52.488;20.952;2024-01-27T19:45:46;101908.38;;;2.15;88.70
78615;BME280;67937;52.488;20.952;2024-01-27T19:48:14;101908.99;;;2.18;88.51
78615;BME280;67937;52.488;20.952;2024-01-27T19:50:42;101917.37;;;2.17;88.31
78615;BME280;67937;52.488;20.952;2024-01-27T19:53:11;101916.58;;;2.22;87.63
78615;BME280;67937;52.488;20.952;2024-01-27T19:55:39;101920.64;;;2.19;87.79
78615;BME280;67937;52.488;20.952;2024-01-27T19:58:07;101923.47;;;2.17;88.10
78615;BME280;67937;52.488;20.952;2024-01-27T20:00:35;101925.56;;;2.17;88.11
78615;BME280;67937;52.488;20.952;2024-01-27T20:03:03;101935.31;;;2.16;88.10
78615;BME280;67937;52.488;20.952;2024-01-27T20:05:31;101939.86;;;2.16;88.11
78615;BME280;67937;52.488;20.952;2024-01-27T20:07:59;101939.83;;;2.18;88.05
78615;BME280;67937;52.488;20.952;2024-01-27T20:10:27;101942.61;;;2.18;87.92
78615;BME280;67937;52.488;20.952;2024-01-27T20:12:55;101947.48;;;2.18;88.13
78615;BME280;67937;52.488;20.952;2024-01-27T20:15:26;101952.38;;;2.18;87.79
78615;BME280;67937;52.488;20.952;2024-01-27T20:17:55;101959.31;;;2.19;87.81
78615;BME280;67937;52.488;20.952;2024-01-27T20:20:23;101960.15;;;2.20;87.54
78615;BME280;67937;52.488;20.952;2024-01-27T20:22:53;101963.45;;;2.21;87.45
78615;BME280;67937;52.488;20.952;2024-01-27T20:25:22;101965.79;;;2.16;87.44
78615;BME280;67937;52.488;20.952;2024-01-27T20:27:50;101972.58;;;2.17;87.55
78615;BME280;67937;52.488;20.952;2024-01-27T20:30:19;101977.64;;;2.17;87.54
78615;BME280;67937;52.488;20.952;2024-01-27T20:32:48;101977.90;;;2.21;87.09
78615;BME280;67937;52.488;20.952;2024-01-27T20:35:17;101981.79;;;2.18;87.12
78615;BME280;67937;52.488;20.952;2024-01-27T20:37:45;101985.20;;;2.22;86.85
78615;BME280;67937;52.488;20.952;2024-01-27T20:40:13;101985.79;;;2.18;86.98
78615;BME280;67937;52.488;20.952;2024-01-27T20:42:42;101988.41;;;2.18;87.02
78615;BME280;67937;52.488;20.952;2024-01-27T20:45:10;101989.64;;;2.17;87.14
78615;BME280;67937;52.488;20.952;2024-01-27T20:47:38;101995.41;;;2.15;87.19
78615;BME280;67937;52.488;20.952;2024-01-27T20:50:06;101999.44;;;2.14;87.16
78615;BME280;67937;52.488;20.952;2024-01-27T20:52:35;101999.30;;;2.22;86.36
78615;BME280;67937;52.488;20.952;2024-01-27T20:55:03;102001.10;;;2.19;86.45
78615;BME280;67937;52.488;20.952;2024-01-27T20:57:31;102008.40;;;2.19;86.11
78615;BME280;67937;52.488;20.952;2024-01-27T20:59:59;102015.42;;;2.16;86.47
78615;BME280;67937;52.488;20.952;2024-01-27T21:02:27;102022.02;;;2.18;86.20
78615;BME280;67937;52.488;20.952;2024-01-27T21:04:55;102028.25;;;2.20;85.71
78615;BME280;67937;52.488;20.952;2024-01-27T21:07:23;102034.86;;;2.21;85.80
78615;BME280;67937;52.488;20.952;2024-01-27T21:09:51;102040.67;;;2.16;86.08
78615;BME280;67937;52.488;20.952;2024-01-27T21:12:20;102046.45;;;2.14;86.17
78615;BME280;67937;52.488;20.952;2024-01-27T21:14:49;102048.33;;;2.16;86.21
78615;BME280;67937;52.488;20.952;2024-01-27T21:17:17;102053.52;;;2.19;85.86
78615;BME280;67937;52.488;20.952;2024-01-27T21:19:45;102059.46;;;2.17;85.94
78615;BME280;67937;52.488;20.952;2024-01-27T21:22:15;102062.21;;;2.19;85.73
78615;BME280;67937;52.488;20.952;2024-01-27T21:24:43;102062.94;;;2.17;85.78
78615;BME280;67937;52.488;20.952;2024-01-27T21:27:11;102066.83;;;2.14;86.06
78615;BME280;67937;52.488;20.952;2024-01-27T21:29:39;102064.53;;;2.16;85.99
78615;BME280;67937;52.488;20.952;2024-01-27T21:32:07;102067.81;;;2.18;85.44
78615;BME280;67937;52.488;20.952;2024-01-27T21:34:35;102067.81;;;2.18;85.26
78615;BME280;67937;52.488;20.952;2024-01-27T21:37:03;102074.60;;;2.18;85.05
78615;BME280;67937;52.488;20.952;2024-01-27T21:39:31;102076.22;;;2.15;85.31
78615;BME280;67937;52.488;20.952;2024-01-27T21:42:00;102081.65;;;2.14;85.21
78615;BME280;67937;52.488;20.952;2024-01-27T21:44:29;102082.86;;;2.13;85.28
78615;BME280;67937;52.488;20.952;2024-01-27T21:46:58;102084.60;;;2.14;85.28
78615;BME280;67937;52.488;20.952;2024-01-27T21:49:27;102083.67;;;2.16;84.65
78615;BME280;67937;52.488;20.952;2024-01-27T21:51:55;102086.69;;;2.13;84.77
78615;BME280;67937;52.488;20.952;2024-01-27T21:54:23;102090.88;;;2.14;84.57
78615;BME280;67937;52.488;20.952;2024-01-27T21:56:54;102096.77;;;2.15;84.38
78615;BME280;67937;52.488;20.952;2024-01-27T21:59:46;102097.17;;;2.12;84.39
78615;BME280;67937;52.488;20.952;2024-01-27T22:02:15;102100.92;;;2.16;84.07
78615;BME280;67937;52.488;20.952;2024-01-27T22:04:42;102105.23;;;2.09;84.37
78615;BME280;67937;52.488;20.952;2024-01-27T22:07:10;102113.42;;;2.09;84.51
78615;BME280;67937;52.488;20.952;2024-01-27T22:09:39;102113.60;;;2.07;84.47
78615;BME280;67937;52.488;20.952;2024-01-27T22:12:07;102118.34;;;2.05;84.53
78615;BME280;67937;52.488;20.952;2024-01-27T22:14:35;102125.17;;;2.03;84.74
78615;BME280;67937;52.488;20.952;2024-01-27T22:17:03;102125.10;;;2.07;84.45
78615;BME280;67937;52.488;20.952;2024-01-27T22:19:31;102125.65;;;2.05;83.98
78615;BME280;67937;52.488;20.952;2024-01-27T22:22:00;102134.05;;;2.02;84.16
78615;BME280;67937;52.488;20.952;2024-01-27T22:24:28;102135.80;;;2.02;83.75
78615;BME280;67937;52.488;20.952;2024-01-27T22:26:56;102137.98;;;1.96;84.12
78615;BME280;67937;52.488;20.952;2024-01-27T22:29:24;102142.73;;;1.93;84.32
78615;BME280;67937;52.488;20.952;2024-01-27T22:31:52;102145.15;;;1.94;83.98
78615;BME280;67937;52.488;20.952;2024-01-27T22:34:20;102146.24;;;1.90;83.83
78615;BME280;67937;52.488;20.952;2024-01-27T22:36:48;102147.32;;;1.89;83.54
78615;BME280;67937;52.488;20.952;2024-01-27T22:39:16;102153.38;;;1.80;84.01
78615;BME280;67937;52.488;20.952;2024-01-27T22:41:45;102154.26;;;1.78;83.97
78615;BME280;67937;52.488;20.952;2024-01-27T22:44:13;102151.34;;;1.77;83.65
78615;BME280;67937;52.488;20.952;2024-01-27T22:46:41;102150.59;;;1.68;83.61
78615;BME280;67937;52.488;20.952;2024-01-27T22:49:09;102151.55;;;1.61;83.90
78615;BME280;67937;52.488;20.952;2024-01-27T22:51:37;102156.27;;;1.59;84.07
78615;BME280;67937;52.488;20.952;2024-01-27T22:54:06;102163.65;;;1.54;84.11
78615;BME280;67937;52.488;20.952;2024-01-27T22:56:34;102166.17;;;1.47;84.31
78615;BME280;67937;52.488;20.952;2024-01-27T22:59:02;102168.48;;;1.44;84.42
78615;BME280;67937;52.488;20.952;2024-01-27T23:01:30;102166.80;;;1.39;84.43
78615;BME280;67937;52.488;20.952;2024-01-27T23:03:58;102171.53;;;1.36;84.82
78615;BME280;67937;52.488;20.952;2024-01-27T23:06:26;102174.51;;;1.34;84.70
78615;BME280;67937;52.488;20.952;2024-01-27T23:08:54;102170.44;;;1.26;84.80
78615;BME280;67937;52.488;20.952;2024-01-27T23:11:22;102177.08;;;1.22;84.89
78615;BME280;67937;52.488;20.952;2024-01-27T23:13:50;102183.23;;;1.17;84.91
78615;BME280;67937;52.488;20.952;2024-01-27T23:16:18;102184.54;;;1.10;84.95
78615;BME280;67937;52.488;20.952;2024-01-27T23:18:46;102191.55;;;1.03;85.17
78615;BME280;67937;52.488;20.952;2024-01-27T23:21:15;102194.91;;;0.98;85.29
78615;BME280;67937;52.488;20.952;2024-01-27T23:23:43;102195.99;;;0.93;85.35
78615;BME280;67937;52.488;20.952;2024-01-27T23:26:11;102199.89;;;0.87;85.52
78615;BME280;67937;52.488;20.952;2024-01-27T23:28:39;102198.19;;;0.83;85.82
78615;BME280;67937;52.488;20.952;2024-01-27T23:31:07;102201.85;;;0.82;85.88
78615;BME280;67937;52.488;20.952;2024-01-27T23:33:35;102203.93;;;0.81;85.73
78615;BME280;67937;52.488;20.952;2024-01-27T23:36:03;102206.34;;;0.84;86.02
78615;BME280;67937;52.488;20.952;2024-01-27T23:38:31;102207.73;;;0.85;85.88
78615;BME280;67937;52.488;20.952;2024-01-27T23:40:59;102214.52;;;0.85;85.92
78615;BME280;67937;52.488;20.952;2024-01-27T23:43:27;102212.73;;;0.88;86.08
78615;BME280;67937;52.488;20.952;2024-01-27T23:45:55;102209.75;;;0.92;86.06
78615;BME280;67937;52.488;20.952;2024-01-27T23:48:23;102207.80;;;0.96;85.86
78615;BME280;67937;52.488;20.952;2024-01-27T23:50:51;102211.62;;;0.95;85.91
78615;BME280;67937;52.488;20.952;2024-01-27T23:53:22;102212.55;;;0.89;86.13
78615;BME280;67937;52.488;20.952;2024-01-27T23:55:50;102213.74;;;0.93;86.25
78615;BME280;67937;52.488;20.952;2024-01-27T23:58:20;102215.25;;;0.96;86.14
